Time;durP1;ratioP1;P1;durP2;ratioP2;P2;SDS_P1;SDS_P2;PMS_P1;PMS_P2;Temp;Humidity;BMP_temperature;BMP_pressure;BME280_temperature;BME280_humidity;BME280_pressure;Samples;Min_cycle;Max_cycle;Signal;HPM_P1;HPM_P2
2022/02/19 00:00:45;;;;;;;12.83;3.83;;;6.20;91.30;;;;;;5004655;28;20458;-82
2022/02/19 00:03:14;;;;;;;12.53;2.63;;;6.10;90.90;;;;;;5003466;28;20509;-82
2022/02/19 00:05:48;;;;;;;18.37;2.90;;;6.20;91.60;;;;;;5003951;28;20553;-82
2022/02/19 00:08:34;;;;;;;10.53;3.00;;;6.20;90.60;;;;;;5004715;28;20902;-82
2022/02/19 00:11:03;;;;;;;9.20;2.00;;;6.20;90.70;;;;;;5003370;28;20482;-82
2022/02/19 00:13:37;;;;;;;8.40;2.30;;;6.30;90.00;;;;;;5004213;28;20482;-82
2022/02/19 00:16:07;;;;;;;14.57;3.63;;;6.30;90.70;;;;;;5004184;28;20585;-82
2022/02/19 00:18:50;;;;;;;9.30;2.67;;;6.20;92.20;;;;;;5004029;28;20873;-82
2022/02/19 00:21:25;;;;;;;8.13;2.60;;;6.10;93.80;;;;;;5003939;28;20457;-82
2022/02/19 00:23:59;;;;;;;11.50;3.03;;;6.20;93.30;;;;;;5002977;28;20573;-82
2022/02/19 00:26:40;;;;;;;12.00;3.03;;;6.10;95.60;;;;;;5005135;28;20468;-82
2022/02/19 00:29:18;;;;;;;16.77;3.40;;;6.00;97.20;;;;;;5004618;28;20482;-82
2022/02/19 00:31:46;;;;;;;6.57;2.50;;;5.90;99.80;;;;;;5004536;28;20454;-82
2022/02/19 00:34:22;;;;;;;10.80;3.20;;;5.90;99.90;;;;;;5005424;28;20502;-82
2022/02/19 00:37:16;;;;;;;10.00;4.17;;;5.90;99.90;;;;;;5005174;28;20457;-82
2022/02/19 00:42:38;;;;;;;12.20;3.03;;;5.80;99.90;;;;;;5002889;28;20449;-82
2022/02/19 00:45:18;;;;;;;13.63;3.50;;;5.90;99.90;;;;;;5004091;28;20469;-82
2022/02/19 00:47:49;;;;;;;16.87;3.50;;;5.80;98.40;;;;;;5003899;28;20460;-82
2022/02/19 00:50:41;;;;;;;9.10;2.43;;;6.00;96.50;;;;;;5003091;28;20454;-82
2022/02/19 00:53:12;;;;;;;13.03;2.10;;;6.00;96.00;;;;;;5003836;28;20517;-82
2022/02/19 00:55:48;;;;;;;17.90;2.90;;;6.10;94.00;;;;;;5004268;28;20500;-82
2022/02/19 00:58:32;;;;;;;12.83;3.00;;;6.10;93.50;;;;;;5004270;28;20482;-82
2022/02/19 01:01:07;;;;;;;15.73;4.10;;;6.10;93.10;;;;;;5004378;28;20553;-83
2022/02/19 01:03:47;;;;;;;17.43;2.50;;;6.10;93.30;;;;;;5003139;28;20477;-82
2022/02/19 01:06:19;;;;;;;23.57;4.50;;;6.10;92.70;;;;;;5003310;28;20453;-83
2022/02/19 01:08:50;;;;;;;26.07;5.77;;;6.20;93.80;;;;;;5003191;28;20529;-82
2022/02/19 01:11:22;;;;;;;8.93;3.23;;;6.20;93.50;;;;;;5003080;28;20458;-82
2022/02/19 01:13:53;;;;;;;15.80;3.23;;;6.20;94.00;;;;;;5002744;28;20845;-82
2022/02/19 01:16:29;;;;;;;18.73;5.10;;;6.10;95.10;;;;;;5002750;28;21020;-82
2022/02/19 01:19:02;;;;;;;15.63;3.03;;;6.10;95.40;;;;;;5002949;28;20488;-82
2022/02/19 01:21:29;;;;;;;17.80;3.90;;;6.20;94.50;;;;;;5002364;28;20454;-82
2022/02/19 01:24:17;;;;;;;12.43;2.50;;;6.00;99.20;;;;;;5002101;28;20520;-81
2022/02/19 01:26:45;;;;;;;17.00;3.20;;;5.90;99.90;;;;;;5001979;28;20454;-81
2022/02/19 01:29:12;;;;;;;21.70;4.50;;;5.00;99.90;;;;;;5002247;28;20450;-80
2022/02/19 01:31:42;;;;;;;16.20;3.80;;;4.40;99.90;;;;;;5002788;28;20456;-81
2022/02/19 01:34:22;;;;;;;9.90;4.80;;;4.30;99.90;;;;;;5003509;28;20479;-81
2022/02/19 01:37:00;;;;;;;11.03;3.80;;;4.30;99.90;;;;;;5004949;28;20524;-82
2022/02/19 01:39:29;;;;;;;13.63;5.10;;;4.50;99.90;;;;;;5004651;28;20461;-82
2022/02/19 01:42:05;;;;;;;11.33;2.83;;;4.60;99.90;;;;;;5004674;28;20464;-82
2022/02/19 01:44:45;;;;;;;16.67;4.17;;;4.80;99.90;;;;;;5004506;28;20469;-82
2022/02/19 01:47:25;;;;;;;8.30;3.63;;;5.00;99.90;;;;;;5006216;28;20454;-82
2022/02/19 01:50:01;;;;;;;11.77;4.50;;;4.80;99.90;;;;;;5006434;28;20462;-82
2022/02/19 01:52:37;;;;;;;9.87;2.70;;;4.90;99.90;;;;;;5005029;28;20454;-82
2022/02/19 01:55:33;;;;;;;9.07;3.23;;;4.90;99.90;;;;;;5006993;28;20540;-82
2022/02/19 01:58:05;;;;;;;23.33;3.03;;;4.90;99.90;;;;;;5006755;28;20462;-81
2022/02/19 02:01:03;;;;;;;14.77;3.93;;;4.80;99.90;;;;;;5006383;28;20490;-82
2022/02/19 02:03:48;;;;;;;8.87;1.97;;;4.70;99.90;;;;;;5003936;28;20904;-82
2022/02/19 02:06:24;;;;;;;11.13;3.47;;;4.90;99.90;;;;;;5004319;28;20477;-82
2022/02/19 02:09:24;;;;;;;12.20;2.50;;;4.90;99.90;;;;;;5003272;28;21065;-82
2022/02/19 02:12:06;;;;;;;14.80;3.37;;;4.90;99.90;;;;;;5003227;28;20537;-82
2022/02/19 02:14:52;;;;;;;8.57;3.17;;;4.90;99.90;;;;;;5002769;28;20478;-81
2022/02/19 02:17:45;;;;;;;10.33;2.40;;;5.20;99.90;;;;;;5001088;28;21005;-81
2022/02/19 02:20:29;;;;;;;;;;;;;;;;;;;;;
2022/02/19 02:23:20;;;;;;;9.07;2.60;;;5.20;99.90;;;;;;5001662;28;20497;-81
2022/02/19 02:26:01;;;;;;;18.00;3.00;;;5.30;99.90;;;;;;5002028;28;20973;-82
2022/02/19 02:28:36;;;;;;;5.43;1.77;;;5.30;99.90;;;;;;5002405;28;20783;-81
2022/02/19 02:31:05;;;;;;;9.80;2.30;;;5.30;99.90;;;;;;5002053;28;20492;-81
2022/02/19 02:33:44;;;;;;;9.27;2.20;;;5.50;99.90;;;;;;5001456;28;20482;-81
2022/02/19 02:36:12;;;;;;;9.80;2.50;;;5.40;99.90;;;;;;5002422;28;20478;-81
2022/02/19 02:38:58;;;;;;;6.90;1.90;;;5.60;99.90;;;;;;5001911;28;20457;-81
2022/02/19 02:41:44;;;;;;;6.97;1.97;;;5.50;99.90;;;;;;5002549;28;20512;-81
2022/02/19 02:44:19;;;;;;;11.60;2.40;;;5.50;99.90;;;;;;5002065;28;20520;-81
2022/02/19 02:46:51;;;;;;;12.90;3.63;;;5.50;99.90;;;;;;5002241;28;20553;-81
2022/02/19 02:49:21;;;;;;;13.37;3.03;;;5.30;99.90;;;;;;5001970;28;20450;-81
2022/02/19 02:51:57;;;;;;;8.83;2.00;;;5.30;99.90;;;;;;5003113;28;20465;-81
2022/02/19 02:54:41;;;;;;;16.67;2.53;;;5.30;99.90;;;;;;5001548;28;20473;-81
2022/02/19 03:00:15;;;;;;;6.90;1.97;;;5.60;99.90;;;;;;4992033;28;21028;-81
2022/02/19 03:03:07;;;;;;;13.83;3.17;;;5.60;99.90;;;;;;5003454;28;20446;-81
2022/02/19 03:05:45;;;;;;;7.40;1.87;;;5.60;99.90;;;;;;5005063;28;20450;-82
2022/02/19 03:08:29;;;;;;;12.93;1.90;;;5.80;99.90;;;;;;5006665;28;20453;-81
2022/02/19 03:11:10;;;;;;;7.60;2.17;;;5.80;99.90;;;;;;5004214;28;20458;-81
2022/02/19 03:13:43;;;;;;;7.40;1.73;;;5.70;99.90;;;;;;5006378;28;20473;-82
2022/02/19 03:16:18;;;;;;;6.07;1.53;;;5.70;99.90;;;;;;5005527;28;20505;-82
2022/02/19 03:18:56;;;;;;;12.77;2.50;;;5.80;99.90;;;;;;5005741;28;20453;-81
2022/02/19 03:24:22;;;;;;;4.63;1.53;;;5.80;99.90;;;;;;5003591;28;21024;-81
2022/02/19 03:27:00;;;;;;;19.43;2.87;;;5.80;99.90;;;;;;5005545;28;20461;-81
2022/02/19 03:29:53;;;;;;;8.13;2.27;;;5.70;99.90;;;;;;5005758;28;20528;-81
2022/02/19 03:32:22;;;;;;;7.13;2.00;;;5.70;99.90;;;;;;5006458;28;20458;-82
2022/02/19 03:35:06;;;;;;;7.90;1.93;;;5.70;98.60;;;;;;5004616;28;20505;-82
2022/02/19 03:37:41;;;;;;;4.73;1.27;;;5.60;99.90;;;;;;5006044;28;20521;-81
2022/02/19 03:40:09;;;;;;;6.33;2.10;;;5.60;99.80;;;;;;5005268;28;20476;-81
2022/02/19 03:42:48;;;;;;;6.57;3.40;;;5.70;97.20;;;;;;5005849;28;20537;-82
2022/02/19 03:45:45;;;;;;;9.43;1.80;;;5.70;97.90;;;;;;5005892;28;20460;-82
2022/02/19 03:48:46;;;;;;;8.20;1.90;;;5.70;98.90;;;;;;5001312;28;20466;-81
2022/02/19 03:51:20;;;;;;;4.70;1.60;;;5.70;98.50;;;;;;5006255;28;20461;-81
2022/02/19 03:53:54;;;;;;;11.47;2.77;;;5.80;96.50;;;;;;5005640;28;20485;-81
2022/02/19 03:56:21;;;;;;;7.97;2.40;;;5.80;97.10;;;;;;5004934;28;20505;-82
2022/02/19 03:58:58;;;;;;;8.67;2.53;;;5.70;96.40;;;;;;5005265;28;20461;-81
2022/02/19 04:01:28;;;;;;;8.77;2.40;;;5.70;94.50;;;;;;5005075;28;20465;-81
2022/02/19 04:04:07;;;;;;;6.47;2.43;;;5.60;94.20;;;;;;5004809;28;20474;-81
2022/02/19 04:06:45;;;;;;;9.00;1.80;;;5.70;94.30;;;;;;5005674;28;20474;-82
2022/02/19 04:09:17;;;;;;;4.93;1.00;;;5.60;95.50;;;;;;5005124;28;20462;-82
2022/02/19 04:11:51;;;;;;;8.03;2.00;;;5.60;96.40;;;;;;5004240;28;20446;-82
2022/02/19 04:14:27;;;;;;;9.03;2.03;;;5.50;95.30;;;;;;5004634;28;20511;-81
2022/02/19 04:16:56;;;;;;;6.53;1.93;;;5.60;96.40;;;;;;5004704;28;20501;-82
2022/02/19 04:19:36;;;;;;;5.53;2.53;;;5.60;94.80;;;;;;5005431;28;20549;-82
2022/02/19 04:22:09;;;;;;;6.33;1.70;;;5.60;94.90;;;;;;5005018;28;20461;-82
2022/02/19 04:24:51;;;;;;;9.97;1.97;;;5.60;95.10;;;;;;5005153;28;20470;-82
2022/02/19 04:27:26;;;;;;;6.60;1.93;;;5.50;95.90;;;;;;5004926;28;20454;-82
2022/02/19 04:30:07;;;;;;;11.03;2.40;;;5.50;96.30;;;;;;5005641;28;20492;-82
2022/02/19 04:32:41;;;;;;;12.00;2.47;;;5.60;97.10;;;;;;5004904;28;20486;-81
2022/02/19 04:35:10;;;;;;;7.07;2.00;;;5.40;96.30;;;;;;5005129;28;20481;-82
2022/02/19 04:37:49;;;;;;;15.20;1.97;;;5.50;97.00;;;;;;5004751;28;20486;-82
2022/02/19 04:43:27;;;;;;;12.07;2.20;;;5.40;98.10;;;;;;5003159;28;20472;-82
2022/02/19 04:46:13;;;;;;;10.13;2.00;;;5.40;98.60;;;;;;5005305;28;20471;-82
2022/02/19 04:48:46;;;;;;;13.13;2.47;;;5.30;99.00;;;;;;5004158;28;20457;-81
2022/02/19 04:51:13;;;;;;;10.10;1.80;;;5.30;98.20;;;;;;5005548;28;20533;-82
2022/02/19 04:54:09;;;;;;;12.53;2.07;;;5.30;99.00;;;;;;5004166;28;20529;-82
2022/02/19 04:57:05;;;;;;;10.10;2.20;;;5.20;99.00;;;;;;5004499;28;20486;-82
2022/02/19 04:59:57;;;;;;;7.73;2.10;;;5.10;99.40;;;;;;5003656;28;21020;-82
2022/02/19 05:02:30;;;;;;;5.20;1.60;;;5.20;98.80;;;;;;5003986;28;20458;-82
2022/02/19 05:08:02;;;;;;;8.67;1.70;;;5.10;99.90;;;;;;5002627;28;20450;-82
2022/02/19 05:10:46;;;;;;;5.80;1.80;;;5.20;98.60;;;;;;5003705;28;20474;-82
2022/02/19 05:13:15;;;;;;;12.90;2.27;;;5.20;98.20;;;;;;5003410;28;20477;-82
2022/02/19 05:15:52;;;;;;;7.73;2.13;;;5.10;97.20;;;;;;5003374;28;21037;-82
2022/02/19 05:18:26;;;;;;;7.80;2.37;;;5.10;96.20;;;;;;5003834;28;20454;-82
2022/02/19 05:21:11;;;;;;;6.50;1.93;;;5.00;98.00;;;;;;5003098;28;20464;-82
2022/02/19 05:24:04;;;;;;;14.70;3.40;;;5.00;98.10;;;;;;5003988;28;20536;-82
2022/02/19 05:26:34;;;;;;;11.13;2.07;;;5.00;97.70;;;;;;5002849;28;20570;-82
2022/02/19 05:29:06;;;;;;;4.50;1.40;;;5.00;96.60;;;;;;5003385;28;20442;-82
2022/02/19 05:31:42;;;;;;;7.53;2.43;;;5.00;97.20;;;;;;5003071;28;20474;-82
2022/02/19 05:37:25;;;;;;;14.60;2.13;;;5.00;97.60;;;;;;4999443;28;20482;-82
2022/02/19 05:40:23;;;;;;;11.67;2.93;;;4.90;96.10;;;;;;5003616;28;20962;-82
2022/02/19 05:42:59;;;;;;;12.90;2.07;;;4.90;98.40;;;;;;5002645;28;20481;-82
2022/02/19 05:46:03;;;;;;;6.80;3.20;;;4.70;99.00;;;;;;5005097;28;20477;-82
2022/02/19 05:48:40;;;;;;;9.50;2.40;;;4.70;99.20;;;;;;5003411;28;20497;-82
2022/02/19 05:51:14;;;;;;;11.20;2.00;;;4.70;99.70;;;;;;5004156;28;20469;-82
2022/02/19 05:54:14;;;;;;;8.23;1.70;;;4.60;99.90;;;;;;5004145;28;20474;-81
2022/02/19 05:56:53;;;;;;;8.47;1.80;;;4.50;99.90;;;;;;5006074;28;20474;-82
2022/02/19 05:59:46;;;;;;;5.50;1.60;;;4.50;99.90;;;;;;5005847;28;20533;-82
2022/02/19 06:02:26;;;;;;;10.80;2.80;;;4.70;99.50;;;;;;5006553;28;20521;-82
2022/02/19 06:05:25;;;;;;;18.90;2.40;;;4.50;99.90;;;;;;5003651;28;20478;-82
2022/02/19 06:07:57;;;;;;;7.53;2.43;;;4.60;99.70;;;;;;5004234;28;20454;-82
2022/02/19 06:11:13;;;;;;;6.30;1.50;;;4.70;98.90;;;;;;5003171;28;20517;-82
2022/02/19 06:13:52;;;;;;;11.60;2.63;;;4.70;99.00;;;;;;4945292;28;20483;-82
2022/02/19 06:16:26;;;;;;;8.13;2.23;;;4.50;99.90;;;;;;5002158;28;20527;-82
2022/02/19 06:19:12;;;;;;;9.00;2.53;;;4.60;99.90;;;;;;5003267;28;20478;-82
2022/02/19 06:21:45;;;;;;;11.23;3.27;;;4.50;99.90;;;;;;5002764;28;20461;-82
2022/02/19 06:24:25;;;;;;;10.10;2.13;;;4.40;99.90;;;;;;5000561;28;21007;-82
2022/02/19 06:27:05;;;;;;;14.17;5.17;;;4.40;99.90;;;;;;5000899;28;20465;-82
2022/02/19 06:29:32;;;;;;;8.33;1.97;;;4.50;99.90;;;;;;5003256;28;20460;-81
2022/02/19 06:32:02;;;;;;;11.87;2.70;;;4.50;99.90;;;;;;5003367;28;20465;-81
2022/02/19 06:34:29;;;;;;;6.40;2.70;;;4.50;99.90;;;;;;5003769;28;20477;-81
2022/02/19 06:36:59;;;;;;;18.80;2.67;;;4.40;99.90;;;;;;5005717;28;20474;-82
2022/02/19 06:39:47;;;;;;;11.20;2.63;;;4.40;99.90;;;;;;5006823;28;20461;-82
2022/02/19 06:42:23;;;;;;;17.83;3.53;;;4.30;99.90;;;;;;5006348;28;20480;-82
2022/02/19 06:47:45;;;;;;;10.20;3.33;;;4.50;99.90;;;;;;5006756;28;20962;-82
2022/02/19 06:53:15;;;;;;;12.83;2.97;;;4.40;99.90;;;;;;5005963;28;20914;-82
2022/02/19 07:01:52;;;;;;;12.30;2.90;;;4.40;99.90;;;;;;5002985;28;20494;-82
2022/02/19 07:04:22;;;;;;;13.70;2.77;;;4.50;99.90;;;;;;5004314;28;20485;-82
2022/02/19 07:06:57;;;;;;;11.57;2.60;;;4.50;99.90;;;;;;5004806;28;20478;-82
2022/02/19 07:09:36;;;;;;;12.37;2.90;;;4.60;99.90;;;;;;5005693;28;21006;-82
2022/02/19 07:12:53;;;;;;;12.73;3.07;;;4.60;99.90;;;;;;5006448;28;20458;-83
2022/02/19 07:15:45;;;;;;;9.13;2.80;;;4.70;99.90;;;;;;4952932;28;20457;-82
2022/02/19 07:18:42;;;;;;;18.10;5.47;;;4.80;99.90;;;;;;5006257;28;20440;-82
2022/02/19 07:21:12;;;;;;;18.87;3.60;;;4.70;99.90;;;;;;4993635;28;20535;-82
2022/02/19 07:23:51;;;;;;;14.87;3.03;;;4.70;99.90;;;;;;5006369;28;20525;-82
2022/02/19 07:26:25;;;;;;;13.23;3.90;;;4.60;99.90;;;;;;5004473;28;20465;-82
2022/02/19 07:28:58;;;;;;;10.50;2.83;;;4.80;99.90;;;;;;5002735;28;20490;-82
2022/02/19 07:31:29;;;;;;;14.57;2.90;;;4.70;99.90;;;;;;5002759;28;20532;-82
2022/02/19 07:34:00;;;;;;;12.73;3.27;;;4.70;99.90;;;;;;5004876;28;20485;-83
2022/02/19 07:36:44;;;;;;;7.60;2.40;;;4.80;99.90;;;;;;5002561;28;20470;-81
2022/02/19 07:42:11;;;;;;;11.97;3.90;;;4.80;99.90;;;;;;4999073;28;20446;-81
2022/02/19 07:58:17;;;;;;;13.47;4.23;;;4.80;99.90;;;;;;4908238;28;20465;-82
2022/02/19 08:05:04;;;;;;;12.40;2.70;;;5.10;99.90;;;;;;4899175;29;20479;-81
2022/02/19 08:11:26;;;;;;;7.73;1.90;;;5.30;99.90;;;;;;4854093;29;20467;-81
2022/02/19 08:24:08;;;;;;;16.37;2.37;;;5.40;99.90;;;;;;4909485;28;20471;-82
2022/02/19 08:29:44;;;;;;;13.07;2.30;;;5.60;99.90;;;;;;4977371;28;20959;-82
2022/02/19 08:32:20;;;;;;;12.27;2.57;;;5.60;99.90;;;;;;4980396;28;20458;-82
2022/02/19 08:35:07;;;;;;;13.87;3.10;;;5.70;99.60;;;;;;4995553;28;20501;-81
2022/02/19 08:37:49;;;;;;;7.33;2.37;;;5.70;99.90;;;;;;4995484;28;20477;-81
2022/02/19 08:40:41;;;;;;;14.30;3.07;;;5.80;99.70;;;;;;5002694;28;20462;-82
2022/02/19 08:43:36;;;;;;;11.00;2.47;;;5.80;99.90;;;;;;4976791;28;20857;-83
2022/02/19 08:56:47;;;;;;;10.40;3.20;;;6.00;96.50;;;;;;4990905;28;20533;-83
2022/02/19 08:59:59;;;;;;;11.27;2.47;;;6.20;96.60;;;;;;4994142;28;20891;-82
2022/02/19 09:06:22;;;;;;;9.50;2.50;;;6.20;99.00;;;;;;5002892;28;20872;-83
2022/02/19 09:16:36;;;;;;;19.27;2.90;;;6.50;95.00;;;;;;4960375;29;20464;-83
2022/02/19 09:26:42;;;;;;;10.60;3.30;;;6.80;92.10;;;;;;4897956;29;20534;-83
2022/02/19 09:51:27;;;;;;;15.50;3.13;;;7.40;85.60;;;;;;4988327;28;20495;-82
2022/02/19 09:54:43;;;;;;;17.30;3.07;;;7.40;80.90;;;;;;5000305;28;20485;-83
2022/02/19 10:07:46;;;;;;;7.17;1.80;;;7.90;72.60;;;;;;4989660;28;20538;-84
2022/02/19 10:10:30;;;;;;;8.70;2.13;;;8.60;70.90;;;;;;4995278;28;20477;-81
2022/02/19 10:12:57;;;;;;;9.50;2.50;;;8.90;67.90;;;;;;4998180;28;20480;-81
2022/02/19 10:15:52;;;;;;;11.03;2.17;;;9.10;65.50;;;;;;4986144;28;20447;-82
2022/02/19 10:18:25;;;;;;;8.93;2.10;;;9.30;60.50;;;;;;4993518;28;21016;-81
2022/02/19 10:20:53;;;;;;;8.70;2.57;;;9.80;60.00;;;;;;4997745;28;20454;-82
2022/02/19 10:23:20;;;;;;;9.93;2.50;;;9.50;54.30;;;;;;4999393;28;20574;-83
2022/02/19 10:26:01;;;;;;;11.00;2.33;;;9.70;55.60;;;;;;4997252;28;20976;-83
2022/02/19 10:28:36;;;;;;;12.20;2.50;;;9.90;56.40;;;;;;4989611;28;20896;-83
2022/02/19 10:31:14;;;;;;;8.70;2.53;;;9.90;52.10;;;;;;4980487;28;20986;-83
2022/02/19 10:33:46;;;;;;;8.57;1.97;;;9.20;48.60;;;;;;4979756;28;20494;-83
2022/02/19 10:36:18;;;;;;;11.13;2.00;;;9.00;48.80;;;;;;4999018;28;20453;-83
2022/02/19 10:39:01;;;;;;;10.07;2.13;;;8.80;51.40;;;;;;4997944;28;20473;-82
2022/02/19 10:41:38;;;;;;;13.90;2.50;;;9.00;50.80;;;;;;4979554;28;20447;-83
2022/02/19 10:44:30;;;;;;;7.80;2.30;;;8.90;51.90;;;;;;4986648;28;20988;-83
2022/02/19 10:47:23;;;;;;;9.57;2.10;;;9.30;50.50;;;;;;4999871;28;20449;-82
2022/02/19 10:50:29;;;;;;;10.87;2.20;;;8.90;46.50;;;;;;4997498;28;20513;-83
2022/02/19 10:53:00;;;;;;;9.10;2.27;;;9.20;47.60;;;;;;4997257;28;20478;-81
2022/02/19 10:55:37;;;;;;;13.40;2.50;;;9.30;47.00;;;;;;4996361;28;20477;-83
2022/02/19 10:58:13;;;;;;;14.13;3.77;;;9.70;47.50;;;;;;4998059;28;20478;-80
2022/02/19 11:01:16;;;;;;;18.50;3.37;;;10.30;45.10;;;;;;4997829;28;20485;-82
2022/02/19 11:04:04;;;;;;;7.77;2.20;;;10.30;44.20;;;;;;4992663;28;20478;-82
2022/02/19 11:07:18;;;;;;;9.40;3.27;;;9.90;44.80;;;;;;4997509;28;20458;-82
2022/02/19 11:10:22;;;;;;;16.93;4.53;;;9.80;43.50;;;;;;4916033;29;20464;-83
2022/02/19 11:16:13;;;;;;;9.80;2.80;;;10.40;44.30;;;;;;4924254;28;20874;-82
2022/02/19 11:18:56;;;;;;;16.70;3.60;;;10.80;42.30;;;;;;4945281;28;20513;-83
2022/02/19 11:28:03;;;;;;;;;;;;;;;;;;;;;
2022/02/19 11:31:01;;;;;;;9.23;2.43;;;10.10;38.90;;;;;;4964965;28;20858;-82
2022/02/19 11:34:04;;;;;;;19.83;8.13;;;10.60;38.30;;;;;;4994544;28;20469;-83
2022/02/19 11:37:12;;;;;;;11.47;2.73;;;11.20;38.80;;;;;;4999581;28;20453;-83
2022/02/19 11:40:30;;;;;;;;;;;;;;;;;;;;;
2022/02/19 11:43:39;;;;;;;8.43;2.53;;;11.40;36.00;;;;;;5000220;28;20467;-82
2022/02/19 11:46:41;;;;;;;8.97;2.23;;;10.90;31.20;;;;;;4999432;28;20456;-84
2022/02/19 11:49:25;;;;;;;8.60;1.80;;;10.60;33.40;;;;;;4998710;28;20984;-83
2022/02/19 11:52:39;;;;;;;6.63;1.97;;;11.10;36.00;;;;;;4999188;28;20508;-82
2022/02/19 11:55:34;;;;;;;10.23;2.07;;;10.30;35.30;;;;;;4981335;28;20506;-83
2022/02/19 11:58:30;;;;;;;8.73;2.20;;;9.50;40.40;;;;;;4993964;28;20474;-83
2022/02/19 12:05:23;;;;;;;10.63;1.90;;;9.30;43.10;;;;;;4894401;29;21046;-82
2022/02/19 12:08:08;;;;;;;6.03;1.63;;;9.60;41.20;;;;;;4979391;28;20549;-81
2022/02/19 12:11:05;;;;;;;15.80;2.10;;;9.90;38.90;;;;;;4981431;28;20459;-83
2022/02/19 12:13:53;;;;;;;6.47;1.60;;;10.00;36.80;;;;;;4998733;28;20469;-82
2022/02/19 12:16:45;;;;;;;12.33;1.80;;;10.00;39.30;;;;;;4999798;28;20518;-82
2022/02/19 12:19:12;;;;;;;12.50;3.17;;;10.00;33.40;;;;;;4998574;28;20481;-83
2022/02/19 12:21:42;;;;;;;10.97;1.83;;;10.50;33.20;;;;;;4999730;28;20458;-82
2022/02/19 12:24:13;;;;;;;8.73;1.70;;;10.60;33.60;;;;;;4999681;28;20470;-83
2022/02/19 12:27:13;;;;;;;7.20;1.73;;;10.30;31.10;;;;;;4999575;28;20502;-83
2022/02/19 12:29:41;;;;;;;11.73;2.30;;;10.80;35.80;;;;;;4990406;28;20818;-82
2022/02/19 12:32:12;;;;;;;11.13;2.13;;;10.40;34.30;;;;;;5000399;28;20485;-85
2022/02/19 12:34:40;;;;;;;8.87;2.63;;;10.20;40.50;;;;;;5000336;28;20488;-81
2022/02/19 12:37:11;;;;;;;12.03;2.10;;;9.80;44.70;;;;;;4977823;28;20458;-82
2022/02/19 12:39:43;;;;;;;8.53;1.90;;;9.90;41.40;;;;;;4993556;28;20488;-83
2022/02/19 12:42:18;;;;;;;12.60;2.80;;;10.60;37.70;;;;;;5000533;28;20500;-83
2022/02/19 12:44:46;;;;;;;12.47;2.40;;;11.20;37.10;;;;;;5000858;28;20477;-83
2022/02/19 12:47:18;;;;;;;11.03;1.90;;;11.50;34.50;;;;;;4999916;28;20475;-82
2022/02/19 12:49:50;;;;;;;8.40;2.60;;;10.90;32.80;;;;;;4999487;28;20482;-82
2022/02/19 12:52:21;;;;;;;7.23;1.60;;;10.80;35.70;;;;;;5000906;28;20535;-83
2022/02/19 12:54:54;;;;;;;11.00;1.63;;;10.00;35.00;;;;;;5001625;28;20496;-82
2022/02/19 12:57:27;;;;;;;8.73;1.97;;;9.30;36.90;;;;;;5001220;28;20461;-84
2022/02/19 13:00:00;;;;;;;9.40;2.10;;;9.20;38.90;;;;;;5000709;28;20509;-84
2022/02/19 13:02:30;;;;;;;10.27;2.00;;;9.50;36.50;;;;;;5002791;28;20465;-82
2022/02/19 13:05:01;;;;;;;7.07;1.90;;;9.50;35.60;;;;;;5001449;28;20514;-84
2022/02/19 13:07:30;;;;;;;9.17;1.90;;;9.30;37.00;;;;;;5001986;28;20527;-83
2022/02/19 13:09:59;;;;;;;15.07;2.40;;;9.50;35.30;;;;;;5000170;28;20470;-84
2022/02/19 13:12:30;;;;;;;12.80;2.60;;;10.20;35.20;;;;;;5001194;28;20864;-83
2022/02/19 13:15:03;;;;;;;9.90;1.70;;;10.60;32.00;;;;;;5000723;28;20458;-83
2022/02/19 13:17:32;;;;;;;7.80;1.87;;;10.60;33.00;;;;;;5000516;28;20454;-83
2022/02/19 13:20:13;;;;;;;9.20;1.70;;;10.90;33.10;;;;;;5000321;28;20477;-84
2022/02/19 13:22:47;;;;;;;8.47;1.97;;;11.00;35.30;;;;;;5000487;28;20454;-83
2022/02/19 13:25:16;;;;;;;6.40;1.33;;;10.60;31.50;;;;;;4997546;28;20500;-82
2022/02/19 13:28:12;;;;;;;6.60;1.43;;;10.30;31.60;;;;;;5001677;28;20473;-84
2022/02/19 13:30:45;;;;;;;7.27;1.70;;;10.70;30.20;;;;;;4999787;28;20444;-83
2022/02/19 13:33:15;;;;;;;7.63;1.20;;;10.50;31.70;;;;;;5000282;28;20477;-83
2022/02/19 13:35:54;;;;;;;9.90;2.40;;;10.10;31.60;;;;;;5001493;28;20442;-83
2022/02/19 13:38:36;;;;;;;;;;;;;;;;;;;;;
2022/02/19 13:41:03;;;;;;;10.27;1.70;;;10.50;33.80;;;;;;5001522;28;20456;-83
2022/02/19 13:43:30;;;;;;;7.00;1.90;;;10.60;29.60;;;;;;4999581;28;20549;-83
2022/02/19 13:45:57;;;;;;;7.43;1.77;;;10.10;32.70;;;;;;5001493;28;20537;-83
2022/02/19 13:48:33;;;;;;;9.13;2.50;;;10.00;32.40;;;;;;4999478;28;20529;-83
2022/02/19 13:51:01;;;;;;;8.03;1.80;;;10.30;32.90;;;;;;5000247;28;20939;-82
2022/02/19 13:53:32;;;;;;;6.73;2.07;;;10.20;33.20;;;;;;5001063;28;20505;-83
2022/02/19 13:56:06;;;;;;;7.33;1.90;;;10.40;32.00;;;;;;5012554;28;20528;-83
2022/02/19 13:58:36;;;;;;;6.27;1.63;;;10.70;32.40;;;;;;5016895;28;20504;-83
2022/02/19 14:01:33;;;;;;;8.80;2.77;;;9.90;30.80;;;;;;4999359;28;20457;-83
2022/02/19 14:04:01;;;;;;;5.80;2.10;;;9.90;35.70;;;;;;4998832;28;20474;-83
2022/02/19 14:06:29;;;;;;;6.87;1.70;;;9.70;33.50;;;;;;5000739;28;20489;-83
2022/02/19 14:09:21;;;;;;;7.40;1.70;;;9.80;34.90;;;;;;4998336;28;20896;-83
2022/02/19 14:14:51;;;;;;;7.60;2.50;;;9.90;30.50;;;;;;5000258;28;20974;-82
2022/02/19 14:17:41;;;;;;;5.80;1.40;;;9.90;32.40;;;;;;5000149;28;20456;-82
2022/02/19 14:20:22;;;;;;;7.83;1.70;;;9.60;32.10;;;;;;4997720;28;20486;-83
2022/02/19 14:23:01;;;;;;;9.53;1.80;;;9.60;32.70;;;;;;4999564;28;20536;-83
2022/02/19 14:25:54;;;;;;;6.43;1.77;;;9.70;34.00;;;;;;4999835;28;20458;-83
2022/02/19 14:28:48;;;;;;;6.77;1.43;;;9.80;35.80;;;;;;4999332;28;20442;-83
2022/02/19 14:31:28;;;;;;;6.87;1.80;;;9.80;35.80;;;;;;4998976;28;20925;-83
2022/02/19 14:34:09;;;;;;;10.80;2.50;;;9.40;36.80;;;;;;4999229;28;20470;-83
2022/02/19 14:36:41;;;;;;;8.57;1.80;;;9.20;39.00;;;;;;5000067;28;20465;-83
2022/02/19 14:42:08;;;;;;;7.23;1.90;;;8.90;42.50;;;;;;4986655;28;20554;-83
2022/02/19 14:44:41;;;;;;;6.37;2.43;;;8.90;42.30;;;;;;4998537;28;20496;-83
2022/02/19 14:47:15;;;;;;;9.70;2.17;;;8.90;43.90;;;;;;4997851;28;20830;-82
2022/02/19 14:50:08;;;;;;;10.33;2.13;;;8.90;43.90;;;;;;4998689;28;20473;-82
2022/02/19 14:52:45;;;;;;;12.20;2.20;;;8.90;45.90;;;;;;4996335;28;20454;-82
2022/02/19 14:55:35;;;;;;;14.23;2.80;;;9.00;44.80;;;;;;4998252;28;20453;-83
2022/02/19 14:58:10;;;;;;;7.77;1.67;;;9.10;44.10;;;;;;4995480;28;20453;-83
2022/02/19 15:00:50;;;;;;;12.30;2.07;;;9.00;44.00;;;;;;5002965;28;20469;-82
2022/02/19 15:03:17;;;;;;;9.40;2.13;;;9.10;43.00;;;;;;5001292;28;20556;-82
2022/02/19 15:05:47;;;;;;;8.83;1.97;;;9.00;43.10;;;;;;4987223;28;20459;-83
2022/02/19 15:08:18;;;;;;;7.60;2.20;;;9.10;44.10;;;;;;5002660;28;20897;-82
2022/02/19 15:16:25;;;;;;;12.03;2.20;;;9.10;44.50;;;;;;5000313;28;20457;-83
2022/02/19 15:18:53;;;;;;;9.70;2.40;;;8.90;43.90;;;;;;5002344;28;20998;-82
2022/02/19 15:21:33;;;;;;;9.73;2.27;;;9.00;44.10;;;;;;5001759;28;20454;-83
2022/02/19 15:24:01;;;;;;;10.77;2.60;;;9.10;44.10;;;;;;5001838;28;20995;-83
2022/02/19 15:26:50;;;;;;;7.70;2.00;;;8.90;43.50;;;;;;5001758;28;20464;-83
2022/02/19 15:32:35;;;;;;;10.93;2.60;;;8.70;43.00;;;;;;4998766;28;20486;-83
2022/02/19 15:35:12;;;;;;;12.10;3.30;;;8.60;43.60;;;;;;5002589;28;20482;-82
2022/02/19 15:37:58;;;;;;;6.97;1.80;;;8.50;43.50;;;;;;4981869;28;20870;-83
2022/02/19 15:40:35;;;;;;;14.17;2.33;;;8.50;43.50;;;;;;4995896;28;20481;-83
2022/02/19 15:43:07;;;;;;;7.47;2.50;;;8.40;45.20;;;;;;5001143;28;20551;-83
2022/02/19 15:45:43;;;;;;;9.50;2.53;;;8.40;45.10;;;;;;5003103;28;20850;-83
2022/02/19 15:48:10;;;;;;;10.00;2.90;;;8.30;46.00;;;;;;5002278;28;20676;-81
2022/02/19 15:51:01;;;;;;;12.13;2.20;;;8.20;46.10;;;;;;5002124;28;20450;-83
2022/02/19 15:53:57;;;;;;;12.77;2.30;;;8.20;47.80;;;;;;4997141;28;20482;-83
2022/02/19 15:56:40;;;;;;;6.87;2.20;;;8.20;50.90;;;;;;5001668;28;20508;-82
2022/02/19 15:59:21;;;;;;;5.57;1.70;;;7.90;52.30;;;;;;5001778;28;20480;-83
2022/02/19 16:02:31;;;;;;;6.80;2.33;;;7.90;53.90;;;;;;5001005;28;20750;-82
2022/02/19 16:08:13;;;;;;;11.03;2.40;;;7.80;54.30;;;;;;4998431;28;20817;-83
2022/02/19 16:13:55;;;;;;;8.77;2.27;;;7.70;57.60;;;;;;4999458;28;20476;-83
2022/02/19 16:16:41;;;;;;;7.00;1.80;;;7.70;59.00;;;;;;4999943;28;20887;-83
2022/02/19 16:22:15;;;;;;;8.87;1.90;;;7.60;57.60;;;;;;4992350;28;20457;-83
2022/02/19 16:25:20;;;;;;;8.10;1.63;;;7.60;54.80;;;;;;5001632;28;20501;-82
2022/02/19 16:28:22;;;;;;;6.77;2.03;;;7.70;57.20;;;;;;5001587;28;20461;-83
2022/02/19 16:31:20;;;;;;;9.47;2.50;;;7.60;55.90;;;;;;5000497;28;20445;-83
2022/02/19 16:33:58;;;;;;;11.03;2.47;;;7.60;57.60;;;;;;5000094;28;20469;-83
2022/02/19 16:36:39;;;;;;;8.67;2.20;;;7.50;58.00;;;;;;4999033;28;20454;-82
2022/02/19 16:39:46;;;;;;;4.80;1.40;;;7.50;59.80;;;;;;5000614;28;20470;-83
2022/02/19 16:43:08;;;;;;;6.43;1.40;;;7.50;57.60;;;;;;4981965;28;20485;-82
2022/02/19 16:46:02;;;;;;;6.80;1.77;;;7.50;58.50;;;;;;4992512;28;20489;-83
2022/02/19 16:49:02;;;;;;;12.90;2.60;;;7.60;57.90;;;;;;4971867;28;20545;-82